Terminal Aerodrome Forecast
Issued by NWS Mt. Holly, NJ

Home | Current Version | Previous Version | Text Only | Print | Product List | Glossary On
Versions: 1 2 3 4 5 6 7 8 9 10 11 12 13 14 15
736
FTUS41 KPHI 242320
TAFRDG
TAF
KRDG 242320Z 2500/2524 07008KT P6SM VCSH OVC060
      TEMPO 2502/2504 6SM -SHRA BR SCT025 OVC040
     FM250400 06008KT P6SM VCSH BKN025 OVC035
     FM250700 06010KT 6SM -SHRA BR SCT008 OVC015
     FM250900 06012KT 4SM -SHRA OVC007
     FM251400 07012G20KT 2SM RA OVC004
     FM252300 06010KT 4SM -SHRA OVC004=

USA.gov is the U.S. government's official web portal to all federal, state and local government web resources and services.